Osceola Municipal, IA

9:47 AM CDT on March 23, 2017 (GMT -0500)
Osceola Municipal

Weather History for KI75 - January, 2013

Change the Weather History Date:

Wednesday, January 23, 2013

  Actual Average (KCNC) Record (KCNC)
Temperature  
Mean Temperature 20 °F -  
Max Temperature 33 °F 38 °F 58 °F (1967)
Min Temperature 7 °F 15 °F -20 °F (1963)
Degree Days  
Heating Degree Days 45    
Moisture  
Dew Point 9 °F    
Average Humidity 64    
Maximum Humidity 81    
Minimum Humidity 49    
Precipitation  
Precipitation 0.00 in - - ()
Sea Level Pressure  
Sea Level Pressure 30.25 in    
Wind  
Wind Speed 10 mph (West)    
Max Wind Speed 21 mph    
Max Gust Speed 26 mph    
Visibility 10 miles    
Events      
Averages and records for this station are not official NWS values.
T = Trace of Precipitation, MM = Missing Value Source: NWS Daily Summary

Daily Weather History Graph

Daily Weather History Graph

Search for Another Location

Airport or City:

Trip Planner

Search our weather history database for the weather conditions in past years. The results will help you decide how hot, cold, wet, or windy it might be!

Date:

Astronomy

Jan. 23, 2013 Rise Set
Actual Time 7:32 AM CST 5:20 PM CST
Civil Twilight 7:03 AM CST 5:50 PM CST
Nautical Twilight 6:29 AM CST 6:24 PM CST
Astronomical Twilight 5:57 AM CST 6:56 PM CST
Moon 2:31 PM CST 4:45 AM CST
Length of Visible Light 10h 47m
Length of Day
9h 48m
Waxing Gibbous, 89% of the Moon is Illuminated
Jan 23
Waxing Gibbous
Jan 26
Full
Feb 3
Last Quarter
Feb 10
New
Feb 17
First Quarter

Hourly Weather History & Observations

Time (CST) Temp. Windchill Dew Point Humidity Pressure Visibility Wind Dir Wind Speed Gust Speed Precip Events Conditions
12:15 AM 12.6 °F 3.4 °F 3.9 °F 68% 30.28 in 10.0 mi SSE 5.8 mph - N/A   Clear
12:35 AM 12.2 °F 1.7 °F 4.1 °F 70% 30.26 in 10.0 mi SSE 6.9 mph - N/A   Clear
12:55 AM 12.2 °F 1.7 °F 4.1 °F 70% 30.25 in 10.0 mi SSE 6.9 mph - N/A   Clear
1:15 AM 12.2 °F 2.9 °F 4.1 °F 70% 30.25 in 10.0 mi SSE 5.8 mph - N/A   Clear
1:35 AM 12.0 °F 1.5 °F 4.1 °F 71% 30.25 in 10.0 mi SSE 6.9 mph - N/A   Clear
1:55 AM 12.0 °F 1.5 °F 4.3 °F 71% 30.23 in 10.0 mi SSE 6.9 mph - N/A   Clear
2:15 AM 12.2 °F 0.7 °F 4.5 °F 71% 30.23 in 10.0 mi SSE 8.1 mph - N/A   Clear
2:35 AM 12.6 °F 1.1 °F 4.6 °F 71% 30.23 in 10.0 mi South 8.1 mph - N/A   Clear
2:55 AM 12.6 °F 2.2 °F 4.8 °F 71% 30.23 in 10.0 mi South 6.9 mph - N/A   Clear
3:15 AM 12.6 °F 2.2 °F 5.0 °F 72% 30.23 in 10.0 mi South 6.9 mph - N/A   Clear
3:35 AM 12.2 °F 2.9 °F 5.2 °F 73% 30.22 in 10.0 mi South 5.8 mph - N/A   Clear
3:55 AM 12.2 °F 0.7 °F 5.9 °F 76% 30.21 in 10.0 mi South 8.1 mph - N/A   Clear
4:15 AM 12.6 °F 0.2 °F 6.6 °F 77% 30.21 in 10.0 mi South 9.2 mph - N/A   Clear
4:35 AM 12.7 °F 1.4 °F 6.8 °F 77% 30.21 in 10.0 mi South 8.1 mph - N/A   Clear
4:55 AM 12.7 °F 0.4 °F 7.0 °F 78% 30.20 in 10.0 mi South 9.2 mph - N/A   Clear
5:15 AM 12.7 °F 0.4 °F 7.2 °F 78% 30.19 in 10.0 mi South 9.2 mph - N/A   Clear
5:35 AM 12.7 °F 0.4 °F 7.3 °F 79% 30.19 in 10.0 mi South 9.2 mph - N/A   Clear
5:55 AM 12.6 °F -0.6 °F 7.5 °F 80% 30.18 in 10.0 mi South 10.4 mph - N/A   Clear
6:15 AM 12.6 °F 0.2 °F 7.7 °F 81% 30.17 in 10.0 mi South 9.2 mph - N/A   Clear
6:35 AM 12.7 °F 0.4 °F 7.7 °F 80% 30.17 in 10.0 mi South 9.2 mph - N/A   Clear
6:55 AM 12.7 °F 0.4 °F 7.7 °F 80% 30.18 in 10.0 mi SSW 9.2 mph - N/A   Clear
7:15 AM 13.1 °F 0.1 °F 8.1 °F 80% 30.17 in 10.0 mi South 10.4 mph - N/A   Clear
7:35 AM 13.5 °F 1.3 °F 8.4 °F 80% 30.17 in 10.0 mi SSW 9.2 mph - N/A   Clear
7:55 AM 14.0 °F 0.5 °F 8.6 °F 79% 30.16 in 10.0 mi SSW 11.5 mph - N/A   Clear
8:15 AM 15.6 °F 3.2 °F 9.1 °F 76% 30.16 in 10.0 mi SSW 10.4 mph - N/A   Clear
8:35 AM 16.7 °F 3.8 °F 9.5 °F 73% 30.17 in 10.0 mi SSW 11.5 mph - N/A   Clear
8:55 AM 18.5 °F 4.9 °F 10.2 °F 70% 30.17 in 10.0 mi SW 13.8 mph 17.3 mph N/A   Clear
9:15 AM 19.8 °F 6.5 °F 10.6 °F 68% 30.17 in 10.0 mi SW 13.8 mph - N/A   Clear
9:35 AM 21.7 °F 9.0 °F 11.7 °F 65% 30.17 in 10.0 mi SW 13.8 mph - N/A   Clear
9:55 AM 23.4 °F 11.6 °F 12.0 °F 62% 30.18 in 10.0 mi WSW 12.7 mph 17.3 mph N/A   Clear
10:15 AM 25.5 °F 14.9 °F 13.1 °F 59% 30.18 in 10.0 mi WSW 11.5 mph - N/A   Clear
10:35 AM 27.5 °F 16.3 °F 13.8 °F 56% 30.19 in 10.0 mi West 13.8 mph - N/A   Clear
10:55 AM 29.5 °F 18.8 °F 14.5 °F 54% 30.19 in 10.0 mi West 13.8 mph - N/A   Clear
11:15 AM 30.0 °F 20.0 °F 14.9 °F 53% 30.19 in 10.0 mi West 12.7 mph - N/A   Clear
11:35 AM 30.7 °F 21.4 °F 15.3 °F 53% 30.19 in 10.0 mi WNW 11.5 mph 17.3 mph N/A   Clear
11:55 AM 31.8 °F 21.8 °F 16.0 °F 52% 30.18 in 10.0 mi West 13.8 mph - N/A   Clear
12:15 PM 32.0 °F 22.5 °F 16.7 °F 53% 30.17 in 10.0 mi NW 12.7 mph - N/A   Clear
12:35 PM 32.9 °F 23.2 °F 17.2 °F 53% 30.17 in 10.0 mi NNW 13.8 mph 18.4 mph N/A   Clear
12:55 PM 33.6 °F 24.1 °F 17.4 °F 52% 30.18 in 10.0 mi NW 13.8 mph - N/A   Clear
1:15 PM 33.6 °F 23.3 °F 16.5 °F 50% 30.17 in 10.0 mi NW 16.1 mph - N/A   Clear
1:35 PM 33.1 °F 22.6 °F 16.0 °F 50% 30.18 in 10.0 mi NW 16.1 mph 20.7 mph N/A   Clear
1:55 PM 33.4 °F 24.8 °F 16.2 °F 49% 30.18 in 10.0 mi NNW 11.5 mph - N/A   Clear
2:15 PM 33.1 °F 21.9 °F 16.2 °F 50% 30.18 in 10.0 mi NNW 18.4 mph - N/A   Clear
2:35 PM 32.0 °F 22.1 °F 15.8 °F 51% 30.20 in 10.0 mi NW 13.8 mph - N/A   Clear
2:55 PM 31.3 °F 20.3 °F 15.1 °F 51% 30.20 in 10.0 mi NW 16.1 mph 21.9 mph N/A   Clear
3:15 PM 31.1 °F 20.1 °F 15.6 °F 53% 30.21 in 10.0 mi NNW 16.1 mph - N/A   Clear
3:35 PM 31.6 °F 21.6 °F 16.2 °F 53% 30.22 in 10.0 mi NW 13.8 mph 21.9 mph N/A   Clear
3:55 PM 31.1 °F 20.9 °F 16.2 °F 54% 30.23 in 10.0 mi NNW 13.8 mph - N/A   Clear
4:15 PM 30.6 °F 20.7 °F 15.4 °F 54% 30.23 in 10.0 mi NW 12.7 mph 21.9 mph N/A   Clear
4:35 PM 29.3 °F 18.2 °F 15.3 °F 56% 30.24 in 10.0 mi NNW 15.0 mph 20.7 mph N/A   Clear
4:55 PM 28.0 °F 18.6 °F 15.4 °F 59% 30.25 in 10.0 mi NNW 10.4 mph 23.0 mph N/A   Clear
5:15 PM 27.1 °F 16.4 °F 15.4 °F 61% 30.26 in 10.0 mi NNW 12.7 mph - N/A   Clear
5:35 PM 25.7 °F 15.7 °F 14.9 °F 64% 30.28 in 10.0 mi NNW 10.4 mph 17.3 mph N/A   Clear
5:55 PM 25.3 °F 14.1 °F 15.1 °F 65% 30.28 in 10.0 mi NNW 12.7 mph 18.4 mph N/A   Clear
6:15 PM 24.4 °F 13.0 °F 15.1 °F 68% 30.30 in 10.0 mi NNW 12.7 mph 17.3 mph N/A   Clear
6:35 PM 23.7 °F 10.1 °F 13.8 °F 66% 30.31 in 10.0 mi NNW 17.3 mph 24.2 mph N/A   Clear
6:55 PM 22.6 °F 8.3 °F 11.3 °F 62% 30.32 in 10.0 mi NNW 18.4 mph 26.5 mph N/A   Clear
7:15 PM 21.6 °F 8.2 °F 10.9 °F 64% 30.33 in 10.0 mi NNW 15.0 mph 21.9 mph N/A   Clear
7:35 PM 20.7 °F 4.9 °F 10.0 °F 64% 30.34 in 10.0 mi NNW 20.7 mph 25.3 mph N/A   Clear
7:55 PM 19.2 °F 3.0 °F 6.4 °F 58% 30.35 in 10.0 mi NNW 20.7 mph 24.2 mph N/A   Clear
8:15 PM 17.8 °F 1.5 °F 4.5 °F 56% 30.35 in 10.0 mi NNW 19.6 mph 23.0 mph N/A   Clear
8:35 PM 17.1 °F 3.0 °F 4.6 °F 58% 30.36 in 10.0 mi NNW 13.8 mph - N/A   Clear
8:55 PM 16.3 °F 0.1 °F 4.8 °F 61% 30.37 in 10.0 mi NNW 18.4 mph 26.5 mph N/A   Clear
9:15 PM 14.7 °F -2.5 °F 2.1 °F 57% 30.38 in 10.0 mi NNW 19.6 mph - N/A   Clear
9:35 PM 13.6 °F -3.0 °F 1.9 °F 60% 30.40 in 10.0 mi NNW 17.3 mph 24.2 mph N/A   Clear
9:55 PM 12.6 °F -4.4 °F 1.8 °F 62% 30.41 in 10.0 mi North 17.3 mph - N/A   Clear
10:15 PM 11.8 °F -3.6 °F 1.4 °F 63% 30.42 in 10.0 mi NNW 13.8 mph - N/A   Clear
10:35 PM 10.8 °F -2.0 °F -0.2 °F 61% 30.44 in 10.0 mi North 9.2 mph 13.8 mph N/A   Clear
10:55 PM 9.5 °F -8.8 °F -0.9 °F 63% 30.45 in 10.0 mi NNW 18.4 mph - N/A   Clear
11:15 PM 8.4 °F -8.6 °F -1.5 °F 64% 30.46 in 10.0 mi North 15.0 mph - N/A   Clear
11:35 PM 7.7 °F -8.2 °F -1.7 °F 66% 30.47 in 10.0 mi North 12.7 mph 17.3 mph N/A   Clear
11:55 PM 7.5 °F -6.9 °F -2.2 °F 65% 30.49 in 10.0 mi North 10.4 mph - N/A   Clear